Hails, China
Current Conditions -  °F | °C
As of 6:00 PM on Wednesday 22 Oct 2014 (Local Time) from ZBHH Reporting Station
Haze Haze  
Wind Chill: 57°   Ceiling: Unl
Heat Index: 57°   Visibility: 3mi
Dew Point: 34°   Wind: 2mph
Humidity: 41%   Direction: 160°SSE
Pressure: 30.03"   Gusts: NA
Location:  41.45°N, 106.38°E
Report Text: ZBHH 221000Z 16001MPS 5000 HZ NSC 14/01 Q1017 NOSIG
Loading
Personal Weather Stations






























Interactive Weather Map
Tropical Storm Tracking
New forecast layout! Learn more

10-Day Weather Forecast

Advertisements
Track Severe Weather on mobile